Terminal Aerodrome Forecast
Issued by NWS

Home | Current Version | Previous Version | Text Only | Print | Product List | Glossary On
Versions: 1 2 3 4 5 6 7 8 9 10 11 12 13
603
FTUS43 KAPX 240522
TAFPLN
TAF
KPLN 240522Z 2406/2506 17006KT 6SM -FZRA BR OVC040
     FM241100 21004KT 3SM -RA BR OVC008
     FM241300 23004KT 2SM -RA BR OVC005
     FM241500 27004KT 2SM -RA BR OVC005
     FM241800 31005KT 2SM -RA BR OVC003
     FM242300 01004KT 2SM -RA BR OVC003
     FM250100 03005KT 3SM -RA BR OVC010=

USA.gov is the U.S. government's official web portal to all federal, state and local government web resources and services.